sensor_id;sensor_type;location;lat;lon;timestamp;temperature;humidity
22908;DHT22;11620;50.050;8.690;2023-04-16T00:00:35;8.10;99.90
22908;DHT22;11620;50.050;8.690;2023-04-16T00:03:22;8.00;99.90
22908;DHT22;11620;50.050;8.690;2023-04-16T00:06:10;8.00;99.90
22908;DHT22;11620;50.050;8.690;2023-04-16T00:08:57;8.00;99.90
22908;DHT22;11620;50.050;8.690;2023-04-16T00:11:43;8.10;99.90
22908;DHT22;11620;50.050;8.690;2023-04-16T00:14:29;8.00;99.90
22908;DHT22;11620;50.050;8.690;2023-04-16T00:17:16;8.10;99.90
22908;DHT22;11620;50.050;8.690;2023-04-16T00:20:02;8.10;99.90
22908;DHT22;11620;50.050;8.690;2023-04-16T00:22:49;8.00;99.90
22908;DHT22;11620;50.050;8.690;2023-04-16T00:25:35;8.00;99.90
22908;DHT22;11620;50.050;8.690;2023-04-16T00:28:22;8.00;99.90
22908;DHT22;11620;50.050;8.690;2023-04-16T00:31:08;7.90;99.90
22908;DHT22;11620;50.050;8.690;2023-04-16T00:33:55;7.90;99.90
22908;DHT22;11620;50.050;8.690;2023-04-16T00:36:41;8.00;99.90
22908;DHT22;11620;50.050;8.690;2023-04-16T00:39:27;8.00;99.90
22908;DHT22;11620;50.050;8.690;2023-04-16T00:42:14;7.90;99.90
22908;DHT22;11620;50.050;8.690;2023-04-16T00:45:00;8.00;99.90
22908;DHT22;11620;50.050;8.690;2023-04-16T00:47:47;8.00;99.90
22908;DHT22;11620;50.050;8.690;2023-04-16T00:50:33;8.00;99.90
22908;DHT22;11620;50.050;8.690;2023-04-16T00:53:19;8.00;99.90
22908;DHT22;11620;50.050;8.690;2023-04-16T00:56:06;8.00;99.90
22908;DHT22;11620;50.050;8.690;2023-04-16T00:58:54;7.90;99.90
22908;DHT22;11620;50.050;8.690;2023-04-16T01:01:41;7.90;99.90
22908;DHT22;11620;50.050;8.690;2023-04-16T01:04:27;7.90;99.90
22908;DHT22;11620;50.050;8.690;2023-04-16T01:07:16;7.90;99.90
22908;DHT22;11620;50.050;8.690;2023-04-16T01:10:03;7.80;99.90
22908;DHT22;11620;50.050;8.690;2023-04-16T01:12:49;7.80;99.90
22908;DHT22;11620;50.050;8.690;2023-04-16T01:15:36;7.80;99.90
22908;DHT22;11620;50.050;8.690;2023-04-16T01:18:22;7.80;99.90
22908;DHT22;11620;50.050;8.690;2023-04-16T01:21:09;7.80;99.90
22908;DHT22;11620;50.050;8.690;2023-04-16T01:23:55;7.80;99.90
22908;DHT22;11620;50.050;8.690;2023-04-16T01:26:41;7.80;99.90
22908;DHT22;11620;50.050;8.690;2023-04-16T01:29:28;7.80;99.90
22908;DHT22;11620;50.050;8.690;2023-04-16T01:32:14;7.80;99.90
22908;DHT22;11620;50.050;8.690;2023-04-16T01:35:00;7.80;99.90
22908;DHT22;11620;50.050;8.690;2023-04-16T01:37:49;7.80;99.90
22908;DHT22;11620;50.050;8.690;2023-04-16T01:40:35;7.80;99.90
22908;DHT22;11620;50.050;8.690;2023-04-16T01:43:22;7.70;99.90
22908;DHT22;11620;50.050;8.690;2023-04-16T01:46:20;7.70;99.90
22908;DHT22;11620;50.050;8.690;2023-04-16T01:49:09;7.60;99.90
22908;DHT22;11620;50.050;8.690;2023-04-16T01:51:55;7.70;99.90
22908;DHT22;11620;50.050;8.690;2023-04-16T01:54:41;7.70;99.90
22908;DHT22;11620;50.050;8.690;2023-04-16T01:57:28;7.60;99.90
22908;DHT22;11620;50.050;8.690;2023-04-16T02:00:14;7.60;99.90
22908;DHT22;11620;50.050;8.690;2023-04-16T02:03:01;7.60;99.90
22908;DHT22;11620;50.050;8.690;2023-04-16T02:05:47;7.60;99.90
22908;DHT22;11620;50.050;8.690;2023-04-16T02:08:33;7.60;99.90
22908;DHT22;11620;50.050;8.690;2023-04-16T02:11:20;7.60;99.90
22908;DHT22;11620;50.050;8.690;2023-04-16T02:14:06;7.60;99.90
22908;DHT22;11620;50.050;8.690;2023-04-16T02:16:53;7.60;99.90
22908;DHT22;11620;50.050;8.690;2023-04-16T02:19:40;7.60;99.90
22908;DHT22;11620;50.050;8.690;2023-04-16T02:22:27;7.70;99.90
22908;DHT22;11620;50.050;8.690;2023-04-16T02:25:13;7.70;99.90
22908;DHT22;11620;50.050;8.690;2023-04-16T02:27:59;7.70;99.90
22908;DHT22;11620;50.050;8.690;2023-04-16T02:30:46;7.70;99.90
22908;DHT22;11620;50.050;8.690;2023-04-16T02:33:32;7.70;99.90
22908;DHT22;11620;50.050;8.690;2023-04-16T02:36:18;7.70;99.90
22908;DHT22;11620;50.050;8.690;2023-04-16T02:39:05;7.70;99.90
22908;DHT22;11620;50.050;8.690;2023-04-16T02:41:51;7.70;99.90
22908;DHT22;11620;50.050;8.690;2023-04-16T02:44:38;7.80;99.90
22908;DHT22;11620;50.050;8.690;2023-04-16T02:47:24;7.80;99.90
22908;DHT22;11620;50.050;8.690;2023-04-16T02:50:10;7.90;99.90
22908;DHT22;11620;50.050;8.690;2023-04-16T02:52:57;7.90;99.90
22908;DHT22;11620;50.050;8.690;2023-04-16T02:55:58;7.90;99.90
22908;DHT22;11620;50.050;8.690;2023-04-16T02:58:44;7.90;99.90
22908;DHT22;11620;50.050;8.690;2023-04-16T03:01:30;7.80;99.90
22908;DHT22;11620;50.050;8.690;2023-04-16T03:04:16;7.70;99.90
22908;DHT22;11620;50.050;8.690;2023-04-16T03:07:03;7.70;99.90
22908;DHT22;11620;50.050;8.690;2023-04-16T03:09:49;7.80;99.90
22908;DHT22;11620;50.050;8.690;2023-04-16T03:12:36;7.90;99.90
22908;DHT22;11620;50.050;8.690;2023-04-16T03:15:22;7.90;99.90
22908;DHT22;11620;50.050;8.690;2023-04-16T03:18:09;7.90;99.90
22908;DHT22;11620;50.050;8.690;2023-04-16T03:20:55;7.90;99.90
22908;DHT22;11620;50.050;8.690;2023-04-16T03:23:41;7.90;99.90
22908;DHT22;11620;50.050;8.690;2023-04-16T03:26:28;8.00;99.90
22908;DHT22;11620;50.050;8.690;2023-04-16T03:29:14;7.90;99.90
22908;DHT22;11620;50.050;8.690;2023-04-16T03:32:00;7.90;99.90
22908;DHT22;11620;50.050;8.690;2023-04-16T03:34:47;7.80;99.90
22908;DHT22;11620;50.050;8.690;2023-04-16T03:37:33;7.80;99.90
22908;DHT22;11620;50.050;8.690;2023-04-16T03:40:20;7.80;99.90
22908;DHT22;11620;50.050;8.690;2023-04-16T03:43:06;7.80;99.90
22908;DHT22;11620;50.050;8.690;2023-04-16T03:45:52;7.80;99.90
22908;DHT22;11620;50.050;8.690;2023-04-16T03:48:39;7.80;99.90
22908;DHT22;11620;50.050;8.690;2023-04-16T03:51:25;7.80;99.90
22908;DHT22;11620;50.050;8.690;2023-04-16T03:54:11;7.80;99.90
22908;DHT22;11620;50.050;8.690;2023-04-16T03:56:57;7.70;99.90
22908;DHT22;11620;50.050;8.690;2023-04-16T03:59:44;7.80;99.90
22908;DHT22;11620;50.050;8.690;2023-04-16T04:02:30;7.70;99.90
22908;DHT22;11620;50.050;8.690;2023-04-16T04:05:16;7.60;99.90
22908;DHT22;11620;50.050;8.690;2023-04-16T04:08:03;7.60;99.90
22908;DHT22;11620;50.050;8.690;2023-04-16T04:10:49;7.60;99.90
22908;DHT22;11620;50.050;8.690;2023-04-16T04:13:36;7.60;99.90
22908;DHT22;11620;50.050;8.690;2023-04-16T04:16:22;7.60;99.90
22908;DHT22;11620;50.050;8.690;2023-04-16T04:19:08;7.50;99.90
22908;DHT22;11620;50.050;8.690;2023-04-16T04:21:55;7.50;99.90
22908;DHT22;11620;50.050;8.690;2023-04-16T04:24:41;7.60;99.90
22908;DHT22;11620;50.050;8.690;2023-04-16T04:27:27;7.50;99.90
22908;DHT22;11620;50.050;8.690;2023-04-16T04:30:14;7.60;99.90
22908;DHT22;11620;50.050;8.690;2023-04-16T04:33:00;7.50;99.90
22908;DHT22;11620;50.050;8.690;2023-04-16T04:35:46;7.60;99.90
22908;DHT22;11620;50.050;8.690;2023-04-16T04:38:33;7.60;99.90
22908;DHT22;11620;50.050;8.690;2023-04-16T04:41:19;7.60;99.90
22908;DHT22;11620;50.050;8.690;2023-04-16T04:44:06;7.70;99.90
22908;DHT22;11620;50.050;8.690;2023-04-16T04:46:53;7.70;99.90
22908;DHT22;11620;50.050;8.690;2023-04-16T04:49:39;7.70;99.90
22908;DHT22;11620;50.050;8.690;2023-04-16T04:52:25;7.70;99.90
22908;DHT22;11620;50.050;8.690;2023-04-16T04:55:12;7.70;99.90
22908;DHT22;11620;50.050;8.690;2023-04-16T04:58:02;7.70;99.90
22908;DHT22;11620;50.050;8.690;2023-04-16T05:00:48;7.70;99.90
22908;DHT22;11620;50.050;8.690;2023-04-16T05:03:35;7.70;99.90
22908;DHT22;11620;50.050;8.690;2023-04-16T05:06:21;7.70;99.90
22908;DHT22;11620;50.050;8.690;2023-04-16T05:09:07;7.70;99.90
22908;DHT22;11620;50.050;8.690;2023-04-16T05:11:57;7.70;99.90
22908;DHT22;11620;50.050;8.690;2023-04-16T05:14:43;7.70;99.90
22908;DHT22;11620;50.050;8.690;2023-04-16T05:17:30;7.70;99.90
22908;DHT22;11620;50.050;8.690;2023-04-16T05:20:16;7.70;99.90
22908;DHT22;11620;50.050;8.690;2023-04-16T05:23:02;7.70;99.90
22908;DHT22;11620;50.050;8.690;2023-04-16T05:25:49;7.70;99.90
22908;DHT22;11620;50.050;8.690;2023-04-16T05:28:35;7.70;99.90
22908;DHT22;11620;50.050;8.690;2023-04-16T05:31:21;7.70;99.90
22908;DHT22;11620;50.050;8.690;2023-04-16T05:34:07;7.70;99.90
22908;DHT22;11620;50.050;8.690;2023-04-16T05:36:54;7.70;99.90
22908;DHT22;11620;50.050;8.690;2023-04-16T05:39:40;7.70;99.90
22908;DHT22;11620;50.050;8.690;2023-04-16T05:42:26;7.80;99.90
22908;DHT22;11620;50.050;8.690;2023-04-16T05:45:13;7.80;99.90
22908;DHT22;11620;50.050;8.690;2023-04-16T05:47:59;7.80;99.90
22908;DHT22;11620;50.050;8.690;2023-04-16T05:50:45;7.80;99.90
22908;DHT22;11620;50.050;8.690;2023-04-16T05:53:32;7.80;99.90
22908;DHT22;11620;50.050;8.690;2023-04-16T05:56:18;7.80;99.90
22908;DHT22;11620;50.050;8.690;2023-04-16T05:59:04;7.80;99.90
22908;DHT22;11620;50.050;8.690;2023-04-16T06:01:51;7.90;99.90
22908;DHT22;11620;50.050;8.690;2023-04-16T06:04:37;7.90;99.90
22908;DHT22;11620;50.050;8.690;2023-04-16T06:07:23;7.90;99.90
22908;DHT22;11620;50.050;8.690;2023-04-16T06:10:10;8.00;99.90
22908;DHT22;11620;50.050;8.690;2023-04-16T06:12:56;8.00;99.90
22908;DHT22;11620;50.050;8.690;2023-04-16T06:15:42;8.00;99.90
22908;DHT22;11620;50.050;8.690;2023-04-16T06:18:29;8.10;99.90
22908;DHT22;11620;50.050;8.690;2023-04-16T06:21:15;8.20;99.90
22908;DHT22;11620;50.050;8.690;2023-04-16T06:24:01;8.10;99.90
22908;DHT22;11620;50.050;8.690;2023-04-16T06:26:48;8.10;99.90
22908;DHT22;11620;50.050;8.690;2023-04-16T06:29:34;8.10;99.90
22908;DHT22;11620;50.050;8.690;2023-04-16T06:32:20;8.10;99.90
22908;DHT22;11620;50.050;8.690;2023-04-16T06:35:07;8.10;99.90
22908;DHT22;11620;50.050;8.690;2023-04-16T06:37:53;8.10;99.90
22908;DHT22;11620;50.050;8.690;2023-04-16T06:40:40;8.10;99.90
22908;DHT22;11620;50.050;8.690;2023-04-16T06:43:26;8.00;99.90
22908;DHT22;11620;50.050;8.690;2023-04-16T06:46:12;8.00;99.90
22908;DHT22;11620;50.050;8.690;2023-04-16T06:48:59;8.00;99.90
22908;DHT22;11620;50.050;8.690;2023-04-16T06:51:45;8.00;99.90
22908;DHT22;11620;50.050;8.690;2023-04-16T06:54:31;8.00;99.90
22908;DHT22;11620;50.050;8.690;2023-04-16T06:57:18;8.00;99.90
22908;DHT22;11620;50.050;8.690;2023-04-16T07:00:05;8.00;99.90
22908;DHT22;11620;50.050;8.690;2023-04-16T07:02:51;8.00;99.90
22908;DHT22;11620;50.050;8.690;2023-04-16T07:05:37;8.00;99.90
22908;DHT22;11620;50.050;8.690;2023-04-16T07:08:24;7.90;99.90
22908;DHT22;11620;50.050;8.690;2023-04-16T07:11:10;8.00;99.90
22908;DHT22;11620;50.050;8.690;2023-04-16T07:13:57;8.00;99.90
22908;DHT22;11620;50.050;8.690;2023-04-16T07:16:44;8.00;99.90
22908;DHT22;11620;50.050;8.690;2023-04-16T07:19:30;8.00;99.90
22908;DHT22;11620;50.050;8.690;2023-04-16T07:22:18;7.80;99.90
22908;DHT22;11620;50.050;8.690;2023-04-16T07:25:04;8.00;99.90
22908;DHT22;11620;50.050;8.690;2023-04-16T07:27:51;8.00;99.90
22908;DHT22;11620;50.050;8.690;2023-04-16T07:30:37;8.00;99.90
22908;DHT22;11620;50.050;8.690;2023-04-16T07:33:23;8.10;99.90
22908;DHT22;11620;50.050;8.690;2023-04-16T07:36:09;8.10;99.90
22908;DHT22;11620;50.050;8.690;2023-04-16T07:38:56;8.10;99.90
22908;DHT22;11620;50.050;8.690;2023-04-16T07:41:42;8.10;99.90
22908;DHT22;11620;50.050;8.690;2023-04-16T07:44:29;8.00;99.90
22908;DHT22;11620;50.050;8.690;2023-04-16T07:47:15;8.00;99.90
22908;DHT22;11620;50.050;8.690;2023-04-16T07:50:02;8.00;99.90
22908;DHT22;11620;50.050;8.690;2023-04-16T07:52:48;8.00;99.90
22908;DHT22;11620;50.050;8.690;2023-04-16T07:55:34;8.00;99.90
22908;DHT22;11620;50.050;8.690;2023-04-16T07:58:21;8.00;99.90
22908;DHT22;11620;50.050;8.690;2023-04-16T08:01:07;8.10;99.90
22908;DHT22;11620;50.050;8.690;2023-04-16T08:03:53;8.10;99.90
22908;DHT22;11620;50.050;8.690;2023-04-16T08:06:40;8.10;99.90
22908;DHT22;11620;50.050;8.690;2023-04-16T08:09:26;8.10;99.90
22908;DHT22;11620;50.050;8.690;2023-04-16T08:12:14;8.10;99.90
22908;DHT22;11620;50.050;8.690;2023-04-16T08:15:01;8.10;99.90
22908;DHT22;11620;50.050;8.690;2023-04-16T08:17:47;8.20;99.90
22908;DHT22;11620;50.050;8.690;2023-04-16T08:20:34;8.10;99.90
22908;DHT22;11620;50.050;8.690;2023-04-16T08:23:20;8.20;99.90
22908;DHT22;11620;50.050;8.690;2023-04-16T08:26:06;8.20;99.90
22908;DHT22;11620;50.050;8.690;2023-04-16T08:28:53;8.20;99.90
22908;DHT22;11620;50.050;8.690;2023-04-16T08:31:40;8.30;99.90
22908;DHT22;11620;50.050;8.690;2023-04-16T08:34:26;8.30;99.90
22908;DHT22;11620;50.050;8.690;2023-04-16T08:37:12;8.30;99.90
22908;DHT22;11620;50.050;8.690;2023-04-16T08:39:59;8.30;99.90
22908;DHT22;11620;50.050;8.690;2023-04-16T08:42:52;8.20;99.90
22908;DHT22;11620;50.050;8.690;2023-04-16T08:45:40;8.30;99.90
22908;DHT22;11620;50.050;8.690;2023-04-16T08:48:32;8.20;99.90
22908;DHT22;11620;50.050;8.690;2023-04-16T08:51:21;8.30;99.90
22908;DHT22;11620;50.050;8.690;2023-04-16T08:54:10;8.20;99.90
22908;DHT22;11620;50.050;8.690;2023-04-16T08:56:58;8.20;99.90
22908;DHT22;11620;50.050;8.690;2023-04-16T08:59:45;8.20;99.90
22908;DHT22;11620;50.050;8.690;2023-04-16T09:02:35;8.20;99.90
22908;DHT22;11620;50.050;8.690;2023-04-16T09:05:22;8.20;99.90
22908;DHT22;11620;50.050;8.690;2023-04-16T09:08:11;8.20;99.90
22908;DHT22;11620;50.050;8.690;2023-04-16T09:10:58;8.20;99.90
22908;DHT22;11620;50.050;8.690;2023-04-16T09:13:45;8.20;99.90
22908;DHT22;11620;50.050;8.690;2023-04-16T09:16:32;8.30;99.90
22908;DHT22;11620;50.050;8.690;2023-04-16T09:19:19;8.30;99.90
22908;DHT22;11620;50.050;8.690;2023-04-16T09:22:05;8.30;99.90
22908;DHT22;11620;50.050;8.690;2023-04-16T09:24:51;8.30;99.90
22908;DHT22;11620;50.050;8.690;2023-04-16T09:27:38;8.20;99.90
22908;DHT22;11620;50.050;8.690;2023-04-16T09:30:26;8.20;99.90
22908;DHT22;11620;50.050;8.690;2023-04-16T09:33:15;8.30;99.90
22908;DHT22;11620;50.050;8.690;2023-04-16T09:36:02;8.30;99.90
22908;DHT22;11620;50.050;8.690;2023-04-16T09:38:51;8.40;99.90
22908;DHT22;11620;50.050;8.690;2023-04-16T09:41:37;8.50;99.90
22908;DHT22;11620;50.050;8.690;2023-04-16T09:44:37;8.50;99.90
22908;DHT22;11620;50.050;8.690;2023-04-16T09:47:26;8.50;99.90
22908;DHT22;11620;50.050;8.690;2023-04-16T09:50:25;8.50;99.90
22908;DHT22;11620;50.050;8.690;2023-04-16T09:53:11;8.50;99.90
22908;DHT22;11620;50.050;8.690;2023-04-16T09:55:59;8.60;99.90
22908;DHT22;11620;50.050;8.690;2023-04-16T09:58:46;8.60;99.90
22908;DHT22;11620;50.050;8.690;2023-04-16T10:01:32;8.60;99.90
22908;DHT22;11620;50.050;8.690;2023-04-16T10:04:19;8.60;99.90
22908;DHT22;11620;50.050;8.690;2023-04-16T10:07:05;8.60;99.90
22908;DHT22;11620;50.050;8.690;2023-04-16T10:09:52;8.60;99.90
22908;DHT22;11620;50.050;8.690;2023-04-16T10:12:38;8.70;99.90
22908;DHT22;11620;50.050;8.690;2023-04-16T10:15:26;8.70;99.90
22908;DHT22;11620;50.050;8.690;2023-04-16T10:18:13;8.60;99.90
22908;DHT22;11620;50.050;8.690;2023-04-16T10:21:01;8.70;99.90
22908;DHT22;11620;50.050;8.690;2023-04-16T10:23:47;8.70;99.90
22908;DHT22;11620;50.050;8.690;2023-04-16T10:26:35;8.70;99.90
22908;DHT22;11620;50.050;8.690;2023-04-16T10:29:21;8.70;99.90
22908;DHT22;11620;50.050;8.690;2023-04-16T10:32:08;8.70;99.90
22908;DHT22;11620;50.050;8.690;2023-04-16T10:34:55;8.80;99.90
22908;DHT22;11620;50.050;8.690;2023-04-16T10:37:41;8.80;99.90
22908;DHT22;11620;50.050;8.690;2023-04-16T10:40:30;8.80;99.90
22908;DHT22;11620;50.050;8.690;2023-04-16T10:43:17;8.80;99.90
22908;DHT22;11620;50.050;8.690;2023-04-16T10:46:39;8.70;99.90
22908;DHT22;11620;50.050;8.690;2023-04-16T10:49:26;8.70;99.90
22908;DHT22;11620;50.050;8.690;2023-04-16T10:52:15;8.70;99.90
22908;DHT22;11620;50.050;8.690;2023-04-16T10:55:05;8.80;99.90
22908;DHT22;11620;50.050;8.690;2023-04-16T10:57:51;8.80;99.90
22908;DHT22;11620;50.050;8.690;2023-04-16T11:00:48;8.70;99.90
22908;DHT22;11620;50.050;8.690;2023-04-16T11:03:36;8.80;99.90
22908;DHT22;11620;50.050;8.690;2023-04-16T11:06:26;8.90;99.90
22908;DHT22;11620;50.050;8.690;2023-04-16T11:12:43;9.00;99.90
22908;DHT22;11620;50.050;8.690;2023-04-16T11:15:32;9.00;99.90
22908;DHT22;11620;50.050;8.690;2023-04-16T11:18:19;9.10;99.90
22908;DHT22;11620;50.050;8.690;2023-04-16T11:21:10;9.00;99.90
22908;DHT22;11620;50.050;8.690;2023-04-16T11:23:57;9.10;99.90
22908;DHT22;11620;50.050;8.690;2023-04-16T11:26:44;9.10;99.90
22908;DHT22;11620;50.050;8.690;2023-04-16T11:29:30;9.10;99.90
22908;DHT22;11620;50.050;8.690;2023-04-16T11:32:20;9.10;99.90
22908;DHT22;11620;50.050;8.690;2023-04-16T11:35:17;9.10;99.90
22908;DHT22;11620;50.050;8.690;2023-04-16T11:38:04;9.10;99.90
22908;DHT22;11620;50.050;8.690;2023-04-16T11:40:53;9.10;99.90
22908;DHT22;11620;50.050;8.690;2023-04-16T11:43:40;9.10;99.90
22908;DHT22;11620;50.050;8.690;2023-04-16T11:46:38;9.10;99.90
22908;DHT22;11620;50.050;8.690;2023-04-16T11:49:29;9.20;99.90
22908;DHT22;11620;50.050;8.690;2023-04-16T11:52:29;9.20;99.90
22908;DHT22;11620;50.050;8.690;2023-04-16T11:55:16;9.20;99.90
22908;DHT22;11620;50.050;8.690;2023-04-16T11:58:12;9.20;99.90
22908;DHT22;11620;50.050;8.690;2023-04-16T12:00:58;9.30;99.90
22908;DHT22;11620;50.050;8.690;2023-04-16T12:03:45;9.30;99.90
22908;DHT22;11620;50.050;8.690;2023-04-16T12:06:34;9.30;99.90
22908;DHT22;11620;50.050;8.690;2023-04-16T12:09:22;9.30;99.90
22908;DHT22;11620;50.050;8.690;2023-04-16T12:12:26;9.40;99.90
22908;DHT22;11620;50.050;8.690;2023-04-16T12:15:12;9.50;99.90
22908;DHT22;11620;50.050;8.690;2023-04-16T12:18:05;9.50;99.90
22908;DHT22;11620;50.050;8.690;2023-04-16T12:20:53;9.50;99.90
22908;DHT22;11620;50.050;8.690;2023-04-16T12:23:39;9.40;99.90
22908;DHT22;11620;50.050;8.690;2023-04-16T12:26:25;9.40;99.90
22908;DHT22;11620;50.050;8.690;2023-04-16T12:29:21;9.40;99.90
22908;DHT22;11620;50.050;8.690;2023-04-16T12:32:20;9.40;99.90
22908;DHT22;11620;50.050;8.690;2023-04-16T12:35:08;9.40;99.90
22908;DHT22;11620;50.050;8.690;2023-04-16T12:37:55;9.50;99.90
22908;DHT22;11620;50.050;8.690;2023-04-16T12:40:42;9.50;99.90
22908;DHT22;11620;50.050;8.690;2023-04-16T12:43:28;9.50;99.90
22908;DHT22;11620;50.050;8.690;2023-04-16T12:46:14;9.50;99.90
22908;DHT22;11620;50.050;8.690;2023-04-16T12:49:01;9.50;99.90
22908;DHT22;11620;50.050;8.690;2023-04-16T12:51:48;9.60;99.90
22908;DHT22;11620;50.050;8.690;2023-04-16T12:54:34;9.60;99.90
22908;DHT22;11620;50.050;8.690;2023-04-16T12:57:21;9.70;99.90
22908;DHT22;11620;50.050;8.690;2023-04-16T13:00:13;9.80;99.90
22908;DHT22;11620;50.050;8.690;2023-04-16T13:03:01;9.90;99.90
22908;DHT22;11620;50.050;8.690;2023-04-16T13:05:47;10.00;99.90
22908;DHT22;11620;50.050;8.690;2023-04-16T13:08:33;10.00;99.90
22908;DHT22;11620;50.050;8.690;2023-04-16T13:11:20;10.00;99.90
22908;DHT22;11620;50.050;8.690;2023-04-16T13:14:07;10.00;99.90
22908;DHT22;11620;50.050;8.690;2023-04-16T13:16:53;10.00;99.90
22908;DHT22;11620;50.050;8.690;2023-04-16T13:19:39;10.00;99.90
22908;DHT22;11620;50.050;8.690;2023-04-16T13:22:26;9.90;99.90
22908;DHT22;11620;50.050;8.690;2023-04-16T13:25:12;9.90;99.90
22908;DHT22;11620;50.050;8.690;2023-04-16T13:27:59;9.90;99.90
22908;DHT22;11620;50.050;8.690;2023-04-16T13:30:45;10.00;99.90
22908;DHT22;11620;50.050;8.690;2023-04-16T13:33:32;10.10;99.90
22908;DHT22;11620;50.050;8.690;2023-04-16T13:36:18;10.20;99.90
22908;DHT22;11620;50.050;8.690;2023-04-16T13:39:04;10.20;99.90
22908;DHT22;11620;50.050;8.690;2023-04-16T13:41:55;10.40;99.90
22908;DHT22;11620;50.050;8.690;2023-04-16T13:44:41;10.40;99.90
22908;DHT22;11620;50.050;8.690;2023-04-16T13:47:28;10.50;99.90
22908;DHT22;11620;50.050;8.690;2023-04-16T13:50:14;10.60;99.90
22908;DHT22;11620;50.050;8.690;2023-04-16T13:53:01;10.60;99.90
22908;DHT22;11620;50.050;8.690;2023-04-16T13:55:47;10.70;99.90
22908;DHT22;11620;50.050;8.690;2023-04-16T13:58:34;10.70;99.90
22908;DHT22;11620;50.050;8.690;2023-04-16T14:01:20;10.70;99.90
22908;DHT22;11620;50.050;8.690;2023-04-16T14:04:07;10.90;99.90
22908;DHT22;11620;50.050;8.690;2023-04-16T14:06:53;11.00;99.90
22908;DHT22;11620;50.050;8.690;2023-04-16T14:09:40;11.00;99.90
22908;DHT22;11620;50.050;8.690;2023-04-16T14:12:26;11.00;99.90
22908;DHT22;11620;50.050;8.690;2023-04-16T14:15:13;11.10;99.90
22908;DHT22;11620;50.050;8.690;2023-04-16T14:17:59;11.20;99.90
22908;DHT22;11620;50.050;8.690;2023-04-16T14:20:46;11.20;99.90
22908;DHT22;11620;50.050;8.690;2023-04-16T14:23:13;11.20;99.90
22908;DHT22;11620;50.050;8.690;2023-04-16T14:25:57;11.20;99.90
22908;DHT22;11620;50.050;8.690;2023-04-16T14:28:44;11.20;99.90
22908;DHT22;11620;50.050;8.690;2023-04-16T14:31:30;11.20;99.90
22908;DHT22;11620;50.050;8.690;2023-04-16T14:34:17;11.20;99.90
22908;DHT22;11620;50.050;8.690;2023-04-16T14:37:04;11.10;99.90
22908;DHT22;11620;50.050;8.690;2023-04-16T14:39:51;11.10;99.90
22908;DHT22;11620;50.050;8.690;2023-04-16T14:42:38;11.20;99.90
22908;DHT22;11620;50.050;8.690;2023-04-16T14:45:24;11.10;99.90
22908;DHT22;11620;50.050;8.690;2023-04-16T14:48:12;11.10;99.90
22908;DHT22;11620;50.050;8.690;2023-04-16T14:50:58;11.10;99.90
22908;DHT22;11620;50.050;8.690;2023-04-16T14:53:44;11.10;99.90
22908;DHT22;11620;50.050;8.690;2023-04-16T14:56:31;11.10;99.90
22908;DHT22;11620;50.050;8.690;2023-04-16T14:59:17;11.00;99.90
22908;DHT22;11620;50.050;8.690;2023-04-16T15:02:03;11.00;99.90
22908;DHT22;11620;50.050;8.690;2023-04-16T15:04:50;11.10;99.90
22908;DHT22;11620;50.050;8.690;2023-04-16T15:07:36;11.10;99.90
22908;DHT22;11620;50.050;8.690;2023-04-16T15:10:22;11.20;99.90
22908;DHT22;11620;50.050;8.690;2023-04-16T15:13:09;11.20;99.90
22908;DHT22;11620;50.050;8.690;2023-04-16T15:15:55;11.20;99.90
22908;DHT22;11620;50.050;8.690;2023-04-16T15:18:41;11.20;99.90
22908;DHT22;11620;50.050;8.690;2023-04-16T15:21:28;11.20;99.90
22908;DHT22;11620;50.050;8.690;2023-04-16T15:24:14;11.20;99.90
22908;DHT22;11620;50.050;8.690;2023-04-16T15:26:40;11.10;99.90
22908;DHT22;11620;50.050;8.690;2023-04-16T15:29:06;11.00;99.90
22908;DHT22;11620;50.050;8.690;2023-04-16T15:31:32;11.00;99.90
22908;DHT22;11620;50.050;8.690;2023-04-16T15:33:58;10.90;99.90
22908;DHT22;11620;50.050;8.690;2023-04-16T15:36:25;11.00;99.90
22908;DHT22;11620;50.050;8.690;2023-04-16T15:38:51;11.00;99.90
22908;DHT22;11620;50.050;8.690;2023-04-16T15:41:17;11.00;99.90
22908;DHT22;11620;50.050;8.690;2023-04-16T15:43:43;11.00;99.90
22908;DHT22;11620;50.050;8.690;2023-04-16T15:46:09;11.10;99.90
22908;DHT22;11620;50.050;8.690;2023-04-16T15:48:36;11.00;99.90
22908;DHT22;11620;50.050;8.690;2023-04-16T15:51:02;10.90;99.90
22908;DHT22;11620;50.050;8.690;2023-04-16T15:53:28;10.80;99.90
22908;DHT22;11620;50.050;8.690;2023-04-16T15:55:54;10.80;99.90
22908;DHT22;11620;50.050;8.690;2023-04-16T15:58:20;10.80;99.90
22908;DHT22;11620;50.050;8.690;2023-04-16T16:00:46;10.80;99.90
22908;DHT22;11620;50.050;8.690;2023-04-16T16:03:17;10.80;99.90
22908;DHT22;11620;50.050;8.690;2023-04-16T16:05:45;10.80;99.90
22908;DHT22;11620;50.050;8.690;2023-04-16T16:08:13;10.80;99.90
22908;DHT22;11620;50.050;8.690;2023-04-16T16:10:39;10.80;99.90
22908;DHT22;11620;50.050;8.690;2023-04-16T16:13:06;10.80;99.90
22908;DHT22;11620;50.050;8.690;2023-04-16T16:15:40;10.80;99.90
22908;DHT22;11620;50.050;8.690;2023-04-16T16:18:07;10.80;99.90
22908;DHT22;11620;50.050;8.690;2023-04-16T16:20:33;10.80;99.90
22908;DHT22;11620;50.050;8.690;2023-04-16T16:23:00;10.70;99.90
22908;DHT22;11620;50.050;8.690;2023-04-16T16:25:26;10.70;99.90
22908;DHT22;11620;50.050;8.690;2023-04-16T16:27:52;10.60;99.90
22908;DHT22;11620;50.050;8.690;2023-04-16T16:30:18;10.60;99.90
22908;DHT22;11620;50.050;8.690;2023-04-16T16:32:44;10.60;99.90
22908;DHT22;11620;50.050;8.690;2023-04-16T16:35:30;10.60;99.90
22908;DHT22;11620;50.050;8.690;2023-04-16T16:38:16;10.50;99.90
22908;DHT22;11620;50.050;8.690;2023-04-16T16:41:03;10.60;99.90
22908;DHT22;11620;50.050;8.690;2023-04-16T16:43:49;10.50;99.90
22908;DHT22;11620;50.050;8.690;2023-04-16T16:46:36;10.50;99.90
22908;DHT22;11620;50.050;8.690;2023-04-16T16:49:23;10.50;99.90
22908;DHT22;11620;50.050;8.690;2023-04-16T16:52:09;10.40;99.90
22908;DHT22;11620;50.050;8.690;2023-04-16T16:54:56;10.30;99.90
22908;DHT22;11620;50.050;8.690;2023-04-16T16:57:42;10.30;99.90
22908;DHT22;11620;50.050;8.690;2023-04-16T17:00:28;10.30;99.90
22908;DHT22;11620;50.050;8.690;2023-04-16T17:03:15;10.30;99.90
22908;DHT22;11620;50.050;8.690;2023-04-16T17:06:01;10.30;99.90
22908;DHT22;11620;50.050;8.690;2023-04-16T17:08:48;10.30;99.90
22908;DHT22;11620;50.050;8.690;2023-04-16T17:11:34;10.30;99.90
22908;DHT22;11620;50.050;8.690;2023-04-16T17:14:21;10.30;99.90
22908;DHT22;11620;50.050;8.690;2023-04-16T17:17:07;10.30;99.90
22908;DHT22;11620;50.050;8.690;2023-04-16T17:19:53;10.30;99.90
22908;DHT22;11620;50.050;8.690;2023-04-16T17:22:40;10.20;99.90
22908;DHT22;11620;50.050;8.690;2023-04-16T17:25:27;10.20;99.90
22908;DHT22;11620;50.050;8.690;2023-04-16T17:28:13;10.30;99.90
22908;DHT22;11620;50.050;8.690;2023-04-16T17:30:59;10.30;99.90
22908;DHT22;11620;50.050;8.690;2023-04-16T17:33:47;10.30;99.90
22908;DHT22;11620;50.050;8.690;2023-04-16T17:36:34;10.30;99.90
22908;DHT22;11620;50.050;8.690;2023-04-16T17:39:20;10.20;99.90
22908;DHT22;11620;50.050;8.690;2023-04-16T17:42:07;10.10;99.90